DAL962 KATL-KDAB
Flight info
| Callsign | DAL962 |
|---|---|
| Flight time | 1h 1m |
| Altitude | 31000 |
| Route | VRSTY3 NOKIE YANTI KYLEG TTHOR3 |
| Aircraft | B738/M-SDE2E3FGHIRWXY/LB1 |
Departure
| Time | 2026-05-05 00:44 |
|---|---|
| Airport | Hartsfield Jackson Atlanta International Airport (KATL) |
Arrival
| Time | 2026-05-05 01:45 |
|---|---|
| Airport | Daytona Beach International Airport (KDAB) |
| Time | Latitude | Longitude | Altitude | Speed | Heading |
|---|---|---|---|---|---|
| 2026-05-05 00:26 | 33.63905 | -84.43199 | 1007 ft | 0 kts | 271° |
| 2026-05-05 00:34 | 33.63904 | -84.43183 | 1006 ft | 2 kts | 270° |
| 2026-05-05 00:35 | 33.63904 | -84.43165 | 1006 ft | 2 kts | 271° |
| 2026-05-05 00:35 | 33.63904 | -84.43151 | 1006 ft | 2 kts | 269° |
| 2026-05-05 00:35 | 33.63909 | -84.43136 | 1006 ft | 2 kts | 220° |
| 2026-05-05 00:35 | 33.63921 | -84.43129 | 1006 ft | 0 kts | 185° |
| 2026-05-05 00:36 | 33.63927 | -84.43129 | 1006 ft | 0 kts | 178° |
| 2026-05-05 00:36 | 33.63929 | -84.43129 | 1006 ft | 0 kts | 180° |
| 2026-05-05 00:37 | 33.63901 | -84.43129 | 1006 ft | 9 kts | 180° |
| 2026-05-05 00:37 | 33.63834 | -84.43129 | 1006 ft | 9 kts | 180° |
| 2026-05-05 00:38 | 33.63771 | -84.43130 | 1006 ft | 8 kts | 180° |
| 2026-05-05 00:38 | 33.63710 | -84.43125 | 1006 ft | 10 kts | 161° |
| 2026-05-05 00:38 | 33.63665 | -84.43021 | 1006 ft | 16 kts | 94° |
| 2026-05-05 00:38 | 33.63663 | -84.42879 | 1004 ft | 17 kts | 90° |
| 2026-05-05 00:39 | 33.63658 | -84.42728 | 1001 ft | 19 kts | 96° |
| 2026-05-05 00:39 | 33.63654 | -84.42564 | 998 ft | 20 kts | 90° |
| 2026-05-05 00:39 | 33.63654 | -84.42383 | 992 ft | 23 kts | 90° |
| 2026-05-05 00:39 | 33.63654 | -84.42202 | 985 ft | 22 kts | 90° |
| 2026-05-05 00:40 | 33.63655 | -84.42004 | 978 ft | 25 kts | 90° |
| 2026-05-05 00:40 | 33.63655 | -84.41795 | 967 ft | 22 kts | 90° |
| 2026-05-05 00:40 | 33.63655 | -84.41604 | 964 ft | 23 kts | 90° |
| 2026-05-05 00:40 | 33.63654 | -84.41402 | 962 ft | 24 kts | 90° |
| 2026-05-05 00:41 | 33.63655 | -84.41219 | 962 ft | 17 kts | 90° |
| 2026-05-05 00:41 | 33.63655 | -84.41072 | 960 ft | 18 kts | 90° |
| 2026-05-05 00:41 | 33.63655 | -84.40923 | 955 ft | 12 kts | 90° |
| 2026-05-05 00:41 | 33.63617 | -84.40834 | 952 ft | 11 kts | 167° |
| 2026-05-05 00:42 | 33.63583 | -84.40829 | 952 ft | 1 kts | 178° |
| 2026-05-05 00:42 | 33.63580 | -84.40829 | 952 ft | 0 kts | 178° |
| 2026-05-05 00:42 | 33.63578 | -84.40829 | 952 ft | 1 kts | 179° |
| 2026-05-05 00:42 | 33.63502 | -84.40832 | 952 ft | 13 kts | 203° |
| 2026-05-05 00:43 | 33.63472 | -84.40919 | 955 ft | 12 kts | 268° |
| 2026-05-05 00:43 | 33.63468 | -84.41303 | 962 ft | 88 kts | 271° |
| 2026-05-05 00:43 | 33.63471 | -84.42352 | 991 ft | 160 kts | 269° |
| 2026-05-05 00:43 | 33.63486 | -84.43821 | 1589 ft | 179 kts | 270° |
| 2026-05-05 00:44 | 33.63497 | -84.45201 | 2675 ft | 170 kts | 266° |
| 2026-05-05 00:44 | 33.63473 | -84.46648 | 3298 ft | 180 kts | 265° |
| 2026-05-05 00:44 | 33.63462 | -84.48191 | 3878 ft | 192 kts | 266° |
| 2026-05-05 00:44 | 33.63462 | -84.49853 | 4387 ft | 211 kts | 268° |
| 2026-05-05 00:45 | 33.63464 | -84.51659 | 5007 ft | 226 kts | 268° |
| 2026-05-05 00:45 | 33.63464 | -84.53608 | 5634 ft | 242 kts | 268° |
| 2026-05-05 00:45 | 33.63464 | -84.55673 | 6297 ft | 256 kts | 269° |
| 2026-05-05 00:45 | 33.63463 | -84.57850 | 6998 ft | 269 kts | 269° |
| 2026-05-05 00:46 | 33.63462 | -84.60099 | 7826 ft | 275 kts | 269° |
| 2026-05-05 00:46 | 33.63428 | -84.62399 | 8732 ft | 278 kts | 264° |
| 2026-05-05 00:46 | 33.63010 | -84.64646 | 9566 ft | 281 kts | 245° |
| 2026-05-05 00:46 | 33.61911 | -84.66535 | 10428 ft | 283 kts | 224° |
| 2026-05-05 00:47 | 33.60340 | -84.67936 | 11259 ft | 287 kts | 212° |
| 2026-05-05 00:47 | 33.58569 | -84.69053 | 12063 ft | 292 kts | 202° |
| 2026-05-05 00:47 | 33.56564 | -84.69540 | 12844 ft | 301 kts | 181° |
| 2026-05-05 00:47 | 33.54485 | -84.69262 | 13612 ft | 306 kts | 172° |
| 2026-05-05 00:48 | 33.52349 | -84.68815 | 14384 ft | 311 kts | 172° |
| 2026-05-05 00:48 | 33.50246 | -84.68376 | 15161 ft | 313 kts | 173° |
| 2026-05-05 00:48 | 33.48077 | -84.67945 | 15894 ft | 317 kts | 173° |
| 2026-05-05 00:48 | 33.45898 | -84.67522 | 16668 ft | 320 kts | 173° |
| 2026-05-05 00:49 | 33.43733 | -84.66857 | 17358 ft | 328 kts | 161° |
| 2026-05-05 00:49 | 33.41748 | -84.65431 | 18015 ft | 340 kts | 142° |
| 2026-05-05 00:49 | 33.40175 | -84.63218 | 18358 ft | 360 kts | 124° |
| 2026-05-05 00:49 | 33.38897 | -84.60617 | 18737 ft | 374 kts | 121° |
| 2026-05-05 00:50 | 33.37606 | -84.57850 | 19098 ft | 387 kts | 121° |
| 2026-05-05 00:50 | 33.36274 | -84.54998 | 19406 ft | 402 kts | 121° |
| 2026-05-05 00:50 | 33.34870 | -84.52032 | 19699 ft | 417 kts | 121° |
| 2026-05-05 00:50 | 33.33424 | -84.49007 | 20191 ft | 426 kts | 121° |
| 2026-05-05 00:51 | 33.31937 | -84.45913 | 20831 ft | 430 kts | 121° |
| 2026-05-05 00:51 | 33.30437 | -84.42803 | 21420 ft | 435 kts | 121° |
| 2026-05-05 00:51 | 33.28926 | -84.39677 | 22055 ft | 439 kts | 121° |
| 2026-05-05 00:51 | 33.27385 | -84.36492 | 22595 ft | 445 kts | 121° |
| 2026-05-05 00:52 | 33.25831 | -84.33282 | 23192 ft | 449 kts | 121° |
| 2026-05-05 00:52 | 33.24278 | -84.30075 | 23752 ft | 453 kts | 122° |
| 2026-05-05 00:52 | 33.22697 | -84.26814 | 24317 ft | 457 kts | 122° |
| 2026-05-05 00:52 | 33.21100 | -84.23525 | 24817 ft | 462 kts | 121° |
| 2026-05-05 00:53 | 33.19472 | -84.20176 | 25354 ft | 466 kts | 122° |
| 2026-05-05 00:53 | 33.17848 | -84.16835 | 25920 ft | 468 kts | 121° |
| 2026-05-05 00:53 | 33.16209 | -84.13469 | 26365 ft | 473 kts | 122° |
| 2026-05-05 00:53 | 33.14556 | -84.10076 | 26844 ft | 477 kts | 122° |
| 2026-05-05 00:54 | 33.12897 | -84.06674 | 27320 ft | 481 kts | 122° |
| 2026-05-05 00:54 | 33.11199 | -84.03231 | 27809 ft | 484 kts | 123° |
| 2026-05-05 00:54 | 33.09359 | -83.99838 | 28238 ft | 486 kts | 128° |
| 2026-05-05 00:54 | 33.07241 | -83.96770 | 28773 ft | 484 kts | 136° |
| 2026-05-05 00:55 | 33.04778 | -83.94070 | 29413 ft | 479 kts | 144° |
| 2026-05-05 00:55 | 33.02164 | -83.91679 | 30176 ft | 472 kts | 148° |
| 2026-05-05 00:55 | 32.99473 | -83.89434 | 30793 ft | 468 kts | 149° |
| 2026-05-05 00:55 | 32.96779 | -83.87276 | 31016 ft | 472 kts | 150° |
| 2026-05-05 00:56 | 32.93990 | -83.85071 | 31017 ft | 482 kts | 150° |
| 2026-05-05 00:56 | 32.88296 | -83.80540 | 31014 ft | 500 kts | 149° |
| 2026-05-05 00:57 | 32.82541 | -83.75864 | 31019 ft | 501 kts | 149° |
| 2026-05-05 00:57 | 32.76819 | -83.71147 | 31034 ft | 503 kts | 148° |
| 2026-05-05 00:58 | 32.71052 | -83.66365 | 31033 ft | 504 kts | 148° |
| 2026-05-05 00:58 | 32.65341 | -83.61553 | 31034 ft | 506 kts | 147° |
| 2026-05-05 00:59 | 32.59707 | -83.56576 | 31038 ft | 506 kts | 146° |
| 2026-05-05 00:59 | 32.54124 | -83.51583 | 31039 ft | 507 kts | 146° |
| 2026-05-05 01:00 | 32.48492 | -83.46572 | 31033 ft | 507 kts | 146° |
| 2026-05-05 01:00 | 32.42833 | -83.41572 | 31035 ft | 506 kts | 147° |
| 2026-05-05 01:01 | 32.37216 | -83.36634 | 31035 ft | 506 kts | 147° |
| 2026-05-05 01:01 | 32.31515 | -83.31640 | 31042 ft | 507 kts | 147° |
| 2026-05-05 01:02 | 32.25894 | -83.26722 | 31052 ft | 506 kts | 147° |
| 2026-05-05 01:02 | 32.20229 | -83.21774 | 31054 ft | 507 kts | 147° |
| 2026-05-05 01:03 | 32.14523 | -83.16796 | 31051 ft | 505 kts | 147° |
| 2026-05-05 01:03 | 32.08884 | -83.11885 | 31059 ft | 507 kts | 147° |
| 2026-05-05 01:04 | 32.03206 | -83.06953 | 31060 ft | 507 kts | 147° |
| 2026-05-05 01:04 | 31.94706 | -82.99575 | 31043 ft | 507 kts | 147° |
| 2026-05-05 01:05 | 31.89015 | -82.94646 | 31052 ft | 509 kts | 147° |
| 2026-05-05 01:05 | 31.83301 | -82.89701 | 31038 ft | 508 kts | 147° |
| 2026-05-05 01:06 | 31.77841 | -82.84365 | 31048 ft | 513 kts | 140° |
| 2026-05-05 01:06 | 31.72808 | -82.78394 | 31059 ft | 518 kts | 136° |
| 2026-05-05 01:07 | 31.67939 | -82.72153 | 31059 ft | 520 kts | 135° |
| 2026-05-05 01:07 | 31.63127 | -82.65889 | 31060 ft | 517 kts | 135° |
| 2026-05-05 01:08 | 31.58281 | -82.59635 | 31058 ft | 521 kts | 135° |
| 2026-05-05 01:08 | 31.53404 | -82.53405 | 31052 ft | 521 kts | 136° |
| 2026-05-05 01:09 | 31.50917 | -82.50246 | 30830 ft | 526 kts | 136° |
| 2026-05-05 01:09 | 31.48497 | -82.47174 | 30353 ft | 512 kts | 136° |
| 2026-05-05 01:09 | 31.46060 | -82.44083 | 29933 ft | 514 kts | 136° |
| 2026-05-05 01:09 | 31.43638 | -82.41021 | 29470 ft | 515 kts | 136° |
| 2026-05-05 01:10 | 31.41199 | -82.37943 | 28994 ft | 517 kts | 136° |
| 2026-05-05 01:10 | 31.38782 | -82.34894 | 28549 ft | 516 kts | 136° |
| 2026-05-05 01:10 | 31.36324 | -82.31793 | 28066 ft | 516 kts | 136° |
| 2026-05-05 01:10 | 31.33913 | -82.28755 | 27609 ft | 516 kts | 136° |
| 2026-05-05 01:11 | 31.31463 | -82.25668 | 27151 ft | 514 kts | 136° |
| 2026-05-05 01:11 | 31.29042 | -82.22620 | 26687 ft | 515 kts | 136° |
| 2026-05-05 01:11 | 31.26607 | -82.19556 | 26265 ft | 518 kts | 136° |
| 2026-05-05 01:11 | 31.24164 | -82.16486 | 25781 ft | 516 kts | 136° |
| 2026-05-05 01:12 | 31.21728 | -82.13422 | 25315 ft | 511 kts | 135° |
| 2026-05-05 01:12 | 31.19327 | -82.10404 | 24856 ft | 507 kts | 136° |
| 2026-05-05 01:12 | 31.16931 | -82.07395 | 24394 ft | 501 kts | 135° |
| 2026-05-05 01:12 | 31.14577 | -82.04441 | 24088 ft | 494 kts | 135° |
| 2026-05-05 01:13 | 31.12264 | -82.01542 | 24071 ft | 485 kts | 135° |
| 2026-05-05 01:13 | 31.10001 | -81.98701 | 24059 ft | 464 kts | 135° |
| 2026-05-05 01:13 | 31.07849 | -81.96000 | 24068 ft | 445 kts | 136° |
| 2026-05-05 01:13 | 31.05809 | -81.93443 | 24069 ft | 428 kts | 136° |
| 2026-05-05 01:14 | 31.03799 | -81.90931 | 24066 ft | 422 kts | 136° |
| 2026-05-05 01:14 | 31.01771 | -81.88408 | 24074 ft | 427 kts | 136° |
| 2026-05-05 01:14 | 30.99743 | -81.85892 | 24070 ft | 426 kts | 136° |
| 2026-05-05 01:14 | 30.97731 | -81.83392 | 24072 ft | 426 kts | 136° |
| 2026-05-05 01:15 | 30.95681 | -81.80848 | 24067 ft | 427 kts | 136° |
| 2026-05-05 01:15 | 30.93660 | -81.78339 | 24076 ft | 426 kts | 136° |
| 2026-05-05 01:15 | 30.91631 | -81.75818 | 24070 ft | 425 kts | 136° |
| 2026-05-05 01:15 | 30.89609 | -81.73308 | 24076 ft | 427 kts | 136° |
| 2026-05-05 01:16 | 30.87569 | -81.70776 | 24072 ft | 427 kts | 136° |
| 2026-05-05 01:16 | 30.85535 | -81.68265 | 24070 ft | 427 kts | 136° |
| 2026-05-05 01:16 | 30.83478 | -81.65849 | 24069 ft | 427 kts | 140° |
| 2026-05-05 01:16 | 30.81195 | -81.63616 | 24075 ft | 423 kts | 147° |
| 2026-05-05 01:17 | 30.78770 | -81.61680 | 24075 ft | 420 kts | 151° |
| 2026-05-05 01:17 | 30.76283 | -81.59913 | 24077 ft | 419 kts | 153° |
| 2026-05-05 01:17 | 30.73780 | -81.58222 | 24077 ft | 420 kts | 154° |
| 2026-05-05 01:17 | 30.71245 | -81.56532 | 24073 ft | 419 kts | 154° |
| 2026-05-05 01:18 | 30.68728 | -81.54852 | 24077 ft | 420 kts | 154° |
| 2026-05-05 01:18 | 30.66200 | -81.53153 | 24082 ft | 421 kts | 154° |
| 2026-05-05 01:18 | 30.63669 | -81.51437 | 24080 ft | 420 kts | 153° |
| 2026-05-05 01:18 | 30.61145 | -81.49715 | 24080 ft | 419 kts | 153° |
| 2026-05-05 01:19 | 30.58621 | -81.47987 | 24080 ft | 421 kts | 153° |
| 2026-05-05 01:19 | 30.56106 | -81.46260 | 24072 ft | 421 kts | 153° |
| 2026-05-05 01:19 | 30.53591 | -81.44530 | 24081 ft | 422 kts | 153° |
| 2026-05-05 01:19 | 30.51069 | -81.42793 | 24081 ft | 420 kts | 153° |
| 2026-05-05 01:20 | 30.48544 | -81.41052 | 24075 ft | 421 kts | 153° |
| 2026-05-05 01:20 | 30.46016 | -81.39311 | 24082 ft | 421 kts | 153° |
| 2026-05-05 01:20 | 30.43515 | -81.37589 | 24086 ft | 422 kts | 153° |
| 2026-05-05 01:20 | 30.40973 | -81.35840 | 24087 ft | 422 kts | 153° |
| 2026-05-05 01:21 | 30.38449 | -81.34105 | 24088 ft | 423 kts | 154° |
| 2026-05-05 01:21 | 30.35955 | -81.32390 | 24084 ft | 421 kts | 154° |
| 2026-05-05 01:21 | 30.33405 | -81.30638 | 24083 ft | 422 kts | 154° |
| 2026-05-05 01:21 | 30.30892 | -81.28932 | 24079 ft | 421 kts | 155° |
| 2026-05-05 01:22 | 30.28299 | -81.27395 | 24076 ft | 417 kts | 162° |
| 2026-05-05 01:22 | 30.25573 | -81.26382 | 24028 ft | 410 kts | 174° |
| 2026-05-05 01:22 | 30.22786 | -81.25916 | 23768 ft | 399 kts | 180° |
| 2026-05-05 01:22 | 30.20021 | -81.25677 | 22918 ft | 395 kts | 182° |
| 2026-05-05 01:23 | 30.17299 | -81.25545 | 22044 ft | 389 kts | 183° |
| 2026-05-05 01:23 | 30.14644 | -81.25446 | 21572 ft | 383 kts | 183° |
| 2026-05-05 01:23 | 30.11974 | -81.25344 | 21067 ft | 380 kts | 183° |
| 2026-05-05 01:23 | 30.09370 | -81.25233 | 20585 ft | 376 kts | 182° |
| 2026-05-05 01:24 | 30.06747 | -81.25107 | 20068 ft | 373 kts | 182° |
| 2026-05-05 01:24 | 30.04185 | -81.24973 | 19575 ft | 370 kts | 181° |
| 2026-05-05 01:24 | 30.01613 | -81.24831 | 19083 ft | 367 kts | 181° |
| 2026-05-05 01:24 | 29.99083 | -81.24686 | 18581 ft | 364 kts | 181° |
| 2026-05-05 01:25 | 29.96573 | -81.24538 | 18083 ft | 361 kts | 181° |
| 2026-05-05 01:25 | 29.94063 | -81.24389 | 17541 ft | 359 kts | 180° |
| 2026-05-05 01:25 | 29.91574 | -81.24241 | 17024 ft | 357 kts | 180° |
| 2026-05-05 01:25 | 29.89094 | -81.24124 | 16515 ft | 354 kts | 181° |
| 2026-05-05 01:26 | 29.86657 | -81.24036 | 16026 ft | 352 kts | 181° |
| 2026-05-05 01:26 | 29.84215 | -81.23959 | 15534 ft | 349 kts | 181° |
| 2026-05-05 01:26 | 29.81799 | -81.23882 | 15052 ft | 346 kts | 181° |
| 2026-05-05 01:26 | 29.79385 | -81.23802 | 14568 ft | 344 kts | 181° |
| 2026-05-05 01:27 | 29.77032 | -81.23721 | 14091 ft | 341 kts | 180° |
| 2026-05-05 01:27 | 29.74641 | -81.23637 | 13619 ft | 339 kts | 180° |
| 2026-05-05 01:27 | 29.72293 | -81.23551 | 13130 ft | 337 kts | 180° |
| 2026-05-05 01:27 | 29.69947 | -81.23463 | 12659 ft | 335 kts | 180° |
| 2026-05-05 01:28 | 29.67642 | -81.23362 | 12180 ft | 333 kts | 177° |
| 2026-05-05 01:28 | 29.65371 | -81.22935 | 11972 ft | 323 kts | 165° |
| 2026-05-05 01:28 | 29.63305 | -81.22103 | 11975 ft | 307 kts | 159° |
| 2026-05-05 01:28 | 29.61368 | -81.21135 | 11973 ft | 298 kts | 156° |
| 2026-05-05 01:29 | 29.59493 | -81.20166 | 11969 ft | 299 kts | 158° |
| 2026-05-05 01:29 | 29.57564 | -81.19203 | 11964 ft | 300 kts | 158° |
| 2026-05-05 01:29 | 29.55633 | -81.18277 | 11961 ft | 299 kts | 159° |
| 2026-05-05 01:29 | 29.53717 | -81.17379 | 11959 ft | 298 kts | 159° |
| 2026-05-05 01:30 | 29.51780 | -81.16480 | 11969 ft | 300 kts | 159° |
| 2026-05-05 01:30 | 29.49853 | -81.15585 | 11984 ft | 298 kts | 159° |
| 2026-05-05 01:30 | 29.47937 | -81.14691 | 11970 ft | 298 kts | 159° |
| 2026-05-05 01:30 | 29.46001 | -81.13785 | 11969 ft | 299 kts | 159° |
| 2026-05-05 01:31 | 29.44073 | -81.12883 | 11971 ft | 299 kts | 159° |
| 2026-05-05 01:31 | 29.42150 | -81.11983 | 11973 ft | 299 kts | 159° |
| 2026-05-05 01:31 | 29.40209 | -81.11084 | 11970 ft | 299 kts | 162° |
| 2026-05-05 01:31 | 29.38174 | -81.10668 | 11953 ft | 296 kts | 184° |
| 2026-05-05 01:32 | 29.36177 | -81.11173 | 11632 ft | 296 kts | 207° |
| 2026-05-05 01:32 | 29.34548 | -81.12555 | 11200 ft | 292 kts | 231° |
| 2026-05-05 01:32 | 29.33406 | -81.14436 | 10780 ft | 290 kts | 241° |
| 2026-05-05 01:32 | 29.32403 | -81.16466 | 10338 ft | 290 kts | 242° |
| 2026-05-05 01:33 | 29.31451 | -81.18472 | 9869 ft | 286 kts | 243° |
| 2026-05-05 01:33 | 29.30523 | -81.20438 | 9447 ft | 277 kts | 243° |
| 2026-05-05 01:33 | 29.29623 | -81.22339 | 9015 ft | 269 kts | 243° |
| 2026-05-05 01:33 | 29.28737 | -81.24219 | 8581 ft | 263 kts | 243° |
| 2026-05-05 01:34 | 29.27893 | -81.26017 | 8150 ft | 257 kts | 243° |
| 2026-05-05 01:34 | 29.27051 | -81.27818 | 7709 ft | 252 kts | 243° |
| 2026-05-05 01:34 | 29.26242 | -81.29560 | 7280 ft | 248 kts | 243° |
| 2026-05-05 01:34 | 29.25442 | -81.31294 | 6843 ft | 245 kts | 243° |
| 2026-05-05 01:35 | 29.24659 | -81.32998 | 6373 ft | 244 kts | 243° |
| 2026-05-05 01:35 | 29.23872 | -81.34716 | 5885 ft | 243 kts | 243° |
| 2026-05-05 01:35 | 29.23104 | -81.36413 | 5419 ft | 243 kts | 243° |
| 2026-05-05 01:35 | 29.22337 | -81.38145 | 4936 ft | 243 kts | 243° |
| 2026-05-05 01:36 | 29.21582 | -81.39887 | 4445 ft | 244 kts | 243° |
| 2026-05-05 01:36 | 29.20840 | -81.41629 | 3955 ft | 245 kts | 243° |
| 2026-05-05 01:36 | 29.20107 | -81.43380 | 3465 ft | 246 kts | 243° |
| 2026-05-05 01:36 | 29.19382 | -81.45135 | 2980 ft | 246 kts | 243° |
| 2026-05-05 01:37 | 29.18534 | -81.46825 | 2479 ft | 244 kts | 225° |
| 2026-05-05 01:37 | 29.17185 | -81.47901 | 2033 ft | 234 kts | 193° |
| 2026-05-05 01:37 | 29.15657 | -81.47982 | 1937 ft | 208 kts | 158° |
| 2026-05-05 01:37 | 29.14486 | -81.47135 | 1953 ft | 199 kts | 124° |
| 2026-05-05 01:38 | 29.13973 | -81.45709 | 1961 ft | 195 kts | 97° |
| 2026-05-05 01:38 | 29.13838 | -81.44167 | 1951 ft | 195 kts | 101° |
| 2026-05-05 01:38 | 29.13479 | -81.42663 | 1955 ft | 195 kts | 108° |
| 2026-05-05 01:38 | 29.13027 | -81.41183 | 1960 ft | 197 kts | 108° |
| 2026-05-05 01:39 | 29.12580 | -81.39726 | 1962 ft | 197 kts | 108° |
| 2026-05-05 01:39 | 29.12129 | -81.38241 | 1961 ft | 196 kts | 108° |
| 2026-05-05 01:39 | 29.11686 | -81.36767 | 1960 ft | 196 kts | 108° |
| 2026-05-05 01:39 | 29.11245 | -81.35294 | 1962 ft | 196 kts | 108° |
| 2026-05-05 01:40 | 29.10801 | -81.33808 | 1961 ft | 197 kts | 108° |
| 2026-05-05 01:40 | 29.10357 | -81.32333 | 1962 ft | 198 kts | 108° |
| 2026-05-05 01:40 | 29.09904 | -81.30839 | 1961 ft | 196 kts | 108° |
| 2026-05-05 01:40 | 29.09453 | -81.29364 | 1964 ft | 196 kts | 108° |
| 2026-05-05 01:41 | 29.09239 | -81.27853 | 1959 ft | 196 kts | 82° |
| 2026-05-05 01:41 | 29.09679 | -81.26354 | 1973 ft | 199 kts | 67° |
| 2026-05-05 01:41 | 29.10265 | -81.24931 | 1965 ft | 198 kts | 68° |
| 2026-05-05 01:41 | 29.10825 | -81.23525 | 1966 ft | 186 kts | 68° |
| 2026-05-05 01:42 | 29.11350 | -81.22231 | 1963 ft | 178 kts | 68° |
| 2026-05-05 01:42 | 29.11880 | -81.20934 | 1963 ft | 178 kts | 68° |
| 2026-05-05 01:42 | 29.12402 | -81.19659 | 1980 ft | 173 kts | 68° |
| 2026-05-05 01:42 | 29.12896 | -81.18456 | 1953 ft | 161 kts | 68° |
| 2026-05-05 01:43 | 29.13365 | -81.17307 | 1914 ft | 158 kts | 68° |
| 2026-05-05 01:43 | 29.13820 | -81.16190 | 1681 ft | 155 kts | 68° |
| 2026-05-05 01:43 | 29.14274 | -81.15075 | 1485 ft | 152 kts | 68° |
| 2026-05-05 01:43 | 29.14726 | -81.13963 | 1254 ft | 156 kts | 67° |
| 2026-05-05 01:44 | 29.15193 | -81.12824 | 1034 ft | 157 kts | 67° |
| 2026-05-05 01:44 | 29.15653 | -81.11706 | 815 ft | 154 kts | 67° |
| 2026-05-05 01:44 | 29.16098 | -81.10604 | 626 ft | 150 kts | 66° |
| 2026-05-05 01:44 | 29.16543 | -81.09541 | 425 ft | 146 kts | 66° |
| 2026-05-05 01:45 | 29.16969 | -81.08507 | 238 ft | 143 kts | 66° |
| 2026-05-05 01:45 | 29.17376 | -81.07484 | 44 ft | 141 kts | 66° |
| 2026-05-05 01:45 | 29.17710 | -81.06654 | 31 ft | 67 kts | 66° |
| 2026-05-05 01:45 | 29.17818 | -81.06385 | 31 ft | 17 kts | 66° |